createdAt,value
2023-04-06T00:01:01.475Z,96394.03
2023-04-06T00:04:13.372Z,96396.75
2023-04-06T00:07:26.079Z,96392.63
2023-04-06T00:10:31.109Z,96388.13
2023-04-06T00:13:43.062Z,96389.06
2023-04-06T00:16:46.152Z,96383.97
2023-04-06T00:19:49.790Z,96380.50
2023-04-06T00:22:55.222Z,96375.72
2023-04-06T00:26:00.163Z,96381.63
2023-04-06T00:29:05.275Z,96384.25
2023-04-06T00:32:10.309Z,96379.19
2023-04-06T00:35:13.333Z,96379.38
2023-04-06T00:38:19.450Z,96381.34
2023-04-06T00:41:25.326Z,96383.19
2023-04-06T00:44:31.290Z,96379.09
2023-04-06T00:47:36.422Z,96379.94
2023-04-06T00:50:41.039Z,96377.47
2023-04-06T00:53:46.510Z,96371.75
2023-04-06T00:56:56.462Z,96374.38
2023-04-06T01:03:18.561Z,96369.31
2023-04-06T02:38:47.152Z,96341.69
2023-04-06T02:41:57.002Z,96336.50
2023-04-06T02:45:05.164Z,96337.59
2023-04-06T02:48:39.619Z,96340.16
2023-04-06T02:51:45.363Z,96335.94
2023-04-06T02:55:16.460Z,96329.16
2023-04-06T02:58:21.366Z,96337.78
2023-04-06T03:01:37.546Z,96334.41
2023-04-06T03:04:46.303Z,96333.63
2023-04-06T03:08:08.122Z,96325.97
2023-04-06T03:11:34.931Z,96335.53
2023-04-06T03:14:41.235Z,96333.84
2023-04-06T03:17:46.280Z,96329.50
2023-04-06T03:21:06.617Z,96337.47
2023-04-06T03:24:22.940Z,96322.94
2023-04-06T03:27:35.078Z,96330.63
2023-04-06T03:30:39.107Z,96329.94
2023-04-06T03:33:51.786Z,96330.03
2023-04-06T03:37:15.504Z,96329.63
2023-04-06T03:40:42.574Z,96332.00
2023-04-06T03:43:47.407Z,96328.53
2023-04-06T03:46:55.639Z,96336.47
2023-04-06T03:50:00.392Z,96337.47
2023-04-06T03:53:25.733Z,96334.19
2023-04-06T03:56:28.013Z,96344.75
2023-04-06T03:59:31.148Z,96344.84
2023-04-06T04:02:36.190Z,96341.28
2023-04-06T04:05:40.914Z,96338.66
2023-04-06T04:08:44.953Z,96346.63
2023-04-06T04:11:48.312Z,96347.66
2023-04-06T04:14:51.064Z,96340.78
2023-04-06T04:17:55.098Z,96341.91
2023-04-06T04:21:00.709Z,96331.22
2023-04-06T04:24:04.447Z,96342.75
2023-04-06T04:27:26.922Z,96340.22
2023-04-06T04:30:33.343Z,96341.22
2023-04-06T04:34:04.040Z,96343.06
2023-04-06T04:37:19.868Z,96346.63
2023-04-06T04:40:30.028Z,96350.06
2023-04-06T04:44:02.494Z,96349.25
2023-04-06T04:47:08.584Z,96350.25
2023-04-06T04:50:20.411Z,96345.19
2023-04-06T04:53:26.176Z,96353.31
2023-04-06T04:56:43.918Z,96363.63
2023-04-06T05:00:05.204Z,96366.25
2023-04-06T05:03:21.652Z,96370.72
2023-04-06T05:06:31.911Z,96369.78
2023-04-06T05:09:36.873Z,96368.03
2023-04-06T05:16:03.027Z,96366.13
2023-04-06T05:19:11.108Z,96366.06
2023-04-06T05:22:28.780Z,96373.84
2023-04-06T05:29:04.848Z,96365.72
2023-04-06T05:32:13.879Z,96378.66
2023-04-06T05:35:26.217Z,96376.72
2023-04-06T05:38:36.426Z,96379.09
2023-04-06T05:41:50.706Z,96377.06
2023-04-06T05:45:11.280Z,96378.50
2023-04-06T05:48:18.639Z,96382.66
2023-04-06T05:51:23.122Z,96386.63
2023-04-06T05:54:24.901Z,96386.19
2023-04-06T05:57:35.089Z,96379.47
2023-04-06T06:00:43.460Z,96383.38
2023-04-06T06:03:51.034Z,96384.88
2023-04-06T06:06:53.756Z,96381.91
2023-04-06T06:10:04.436Z,96374.72
2023-04-06T06:13:18.834Z,96392.56
2023-04-06T06:16:34.319Z,96396.22
2023-04-06T06:19:47.984Z,96395.78
2023-04-06T06:22:54.002Z,96398.81
2023-04-06T06:26:08.495Z,96390.50
2023-04-06T06:29:14.566Z,96398.00
2023-04-06T06:32:30.816Z,96395.84
2023-04-06T06:35:38.102Z,96398.78
2023-04-06T06:38:42.968Z,96394.69
2023-04-06T06:41:47.414Z,96389.69
2023-04-06T06:44:52.826Z,96391.09
2023-04-06T06:47:57.219Z,96393.09
2023-04-06T06:51:00.462Z,96391.69
2023-04-06T06:54:12.910Z,96389.22
2023-04-06T06:57:38.174Z,96393.00
2023-04-06T07:00:43.581Z,96392.44
2023-04-06T07:07:19.101Z,96400.00
2023-04-06T07:10:31.113Z,96396.78
2023-04-06T07:13:36.156Z,96395.31
2023-04-06T07:16:41.676Z,96390.22
2023-04-06T07:23:12.974Z,96397.19
2023-04-06T07:26:17.506Z,96392.88
2023-04-06T07:29:22.753Z,96397.44
2023-04-06T07:32:28.098Z,96396.53
2023-04-06T07:35:35.165Z,96393.19
2023-04-06T07:41:59.342Z,96399.50
2023-04-06T07:45:05.336Z,96391.06
2023-04-06T07:48:18.869Z,96400.81
2023-04-06T07:51:23.800Z,96386.84
2023-04-06T07:54:30.056Z,96392.66
2023-04-06T07:57:33.414Z,96386.28
2023-04-06T08:00:37.616Z,96379.19
2023-04-06T08:03:48.629Z,96374.59
2023-04-06T08:07:00.728Z,96377.47
2023-04-06T08:10:31.408Z,96377.72
2023-04-06T08:13:42.898Z,96376.94
2023-04-06T08:20:05.470Z,96378.19
2023-04-06T08:23:19.315Z,96372.13
2023-04-06T08:29:39.278Z,96372.19
2023-04-06T08:32:45.461Z,96372.19
2023-04-06T08:35:54.750Z,96366.19
2023-04-06T08:38:59.386Z,96377.13
2023-04-06T08:42:11.887Z,96383.63
2023-04-06T08:45:19.202Z,96375.19
2023-04-06T08:48:42.871Z,96380.25
2023-04-06T08:51:55.064Z,96373.06
2023-04-06T08:54:59.058Z,96368.47
2023-04-06T08:58:03.410Z,96372.03
2023-04-06T09:01:19.975Z,96377.22
2023-04-06T09:04:25.076Z,96372.44
2023-04-06T09:07:38.163Z,96370.75
2023-04-06T09:14:05.254Z,96366.94
2023-04-06T09:17:11.292Z,96359.31
2023-04-06T09:20:22.433Z,96369.28
2023-04-06T09:23:27.271Z,96366.94
2023-04-06T09:26:39.078Z,96353.41
2023-04-06T09:33:04.123Z,96357.44
2023-04-06T09:36:10.581Z,96355.53
2023-04-06T09:39:16.321Z,96348.09
2023-04-06T09:42:30.435Z,96341.72
2023-04-06T09:45:41.188Z,96344.97
2023-04-06T09:48:45.620Z,96336.34
2023-04-06T09:51:59.997Z,96338.47
2023-04-06T09:55:11.864Z,96332.50
2023-04-06T09:58:21.107Z,96339.50
2023-04-06T10:01:28.146Z,96337.03
2023-04-06T10:04:46.857Z,96334.78
2023-04-06T10:08:00.869Z,96326.69
2023-04-06T10:11:15.240Z,96330.50
2023-04-06T10:14:18.965Z,96319.31
2023-04-06T10:17:21.280Z,96320.44
2023-04-06T10:20:34.990Z,96328.41
2023-04-06T10:23:56.120Z,96318.94
2023-04-06T10:27:06.069Z,96322.47
2023-04-06T10:30:10.988Z,96318.28
2023-04-06T10:33:23.636Z,96313.53
2023-04-06T10:36:30.487Z,96320.66
2023-04-06T10:39:35.631Z,96311.97
2023-04-06T10:42:46.746Z,96308.47
2023-04-06T10:46:28.658Z,96307.78
2023-04-06T10:49:34.096Z,96303.88
2023-04-06T10:52:35.711Z,96303.31
2023-04-06T10:55:42.600Z,96305.84
2023-04-06T10:58:53.445Z,96307.22
2023-04-06T11:02:04.360Z,96303.72
2023-04-06T11:05:11.274Z,96303.19
2023-04-06T11:08:36.586Z,96309.47
2023-04-06T11:11:48.767Z,96299.94
2023-04-06T11:15:14.885Z,96294.63
2023-04-06T11:18:28.269Z,96297.28
2023-04-06T11:25:12.673Z,96281.91
2023-04-06T11:28:29.015Z,96269.28
2023-04-06T11:31:44.702Z,96271.53
2023-04-06T11:34:50.943Z,96271.94
2023-04-06T11:37:57.547Z,96277.25
2023-04-06T11:41:05.137Z,96268.97
2023-04-06T11:44:12.173Z,96267.38
2023-04-06T11:47:26.300Z,96263.41
2023-04-06T11:50:39.453Z,96255.47
2023-04-06T11:53:51.117Z,96260.53
2023-04-06T11:56:56.454Z,96249.41
2023-04-06T12:00:02.957Z,96245.03
2023-04-06T12:03:09.521Z,96242.75
2023-04-06T12:06:14.940Z,96246.78
2023-04-06T12:09:27.504Z,96242.53
2023-04-06T12:12:40.003Z,96238.88
2023-04-06T12:19:10.932Z,96237.19
2023-04-06T12:22:16.898Z,96235.91
2023-04-06T12:25:24.302Z,96239.50
2023-04-06T12:28:32.633Z,96239.19
2023-04-06T12:31:44.576Z,96222.06
2023-04-06T12:34:53.409Z,96229.59
2023-04-06T12:37:56.712Z,96230.53
2023-04-06T12:41:10.173Z,96232.72
2023-04-06T12:44:16.366Z,96227.09
2023-04-06T12:47:23.195Z,96227.31
2023-04-06T12:50:35.768Z,96218.69
2023-04-06T12:53:48.842Z,96217.09
2023-04-06T12:57:00.025Z,96217.31
2023-04-06T13:00:13.070Z,96206.06
2023-04-06T13:03:29.188Z,96209.78
2023-04-06T13:06:32.332Z,96210.28
2023-04-06T13:09:38.410Z,96211.63
2023-04-06T13:12:43.063Z,96213.72
2023-04-06T13:15:49.340Z,96210.00
2023-04-06T13:19:00.692Z,96205.84
2023-04-06T13:22:14.193Z,96194.50
2023-04-06T13:25:20.127Z,96196.38
2023-04-06T13:28:22.141Z,96195.75
2023-04-06T13:31:34.456Z,96185.44
2023-04-06T13:34:41.236Z,96190.19
2023-04-06T13:44:24.327Z,96182.59
2023-04-06T13:47:36.553Z,96172.09
2023-04-06T13:50:39.812Z,96170.78
2023-04-06T13:53:45.459Z,96171.81
2023-04-06T13:56:47.438Z,96168.66
2023-04-06T14:03:11.037Z,96147.59
2023-04-06T14:06:31.713Z,96161.94
2023-04-06T14:09:38.166Z,96156.34
2023-04-06T14:12:45.077Z,96152.94
2023-04-06T14:15:52.579Z,96160.59
2023-04-06T14:18:57.345Z,96150.81
2023-04-06T14:22:08.639Z,96157.25
2023-04-06T14:25:13.945Z,96154.41
2023-04-06T14:28:26.495Z,96163.44
2023-04-06T14:31:31.231Z,96154.84
2023-04-06T14:34:43.191Z,96146.91
2023-04-06T14:37:47.537Z,96148.75
2023-04-06T14:40:59.525Z,96146.59
2023-04-06T14:44:13.149Z,96139.19
2023-04-06T14:47:23.973Z,96141.34
2023-04-06T14:50:36.417Z,96145.22
2023-04-06T14:53:41.596Z,96130.00
2023-04-06T14:56:49.700Z,96126.47
2023-04-06T14:59:55.397Z,96137.41
2023-04-06T15:03:01.058Z,96133.34
2023-04-06T15:06:04.392Z,96129.16
2023-04-06T15:09:15.498Z,96124.22
2023-04-06T15:12:21.287Z,96124.84
2023-04-06T15:15:33.561Z,96129.34
2023-04-06T15:18:37.894Z,96125.31
2023-04-06T15:21:42.107Z,96124.84
2023-04-06T15:24:46.840Z,96128.59
2023-04-06T15:31:33.566Z,96131.53
2023-04-06T15:34:45.864Z,96123.19
2023-04-06T15:41:09.090Z,96124.16
2023-04-06T15:44:14.084Z,96128.59
2023-04-06T15:47:18.350Z,96130.53
2023-04-06T15:50:25.325Z,96118.94
2023-04-06T15:53:30.570Z,96110.81
2023-04-06T15:56:36.360Z,96115.97
2023-04-06T15:59:47.481Z,96115.03
2023-04-06T16:02:53.987Z,96109.78
2023-04-06T16:06:09.330Z,96112.41
2023-04-06T16:09:24.496Z,96106.19
2023-04-06T16:12:31.573Z,96118.31
2023-04-06T16:15:43.524Z,96117.56
2023-04-06T16:18:49.055Z,96116.41
2023-04-06T16:21:53.700Z,96123.28
2023-04-06T16:24:58.934Z,96116.72
2023-04-06T16:31:25.534Z,96111.56
2023-04-06T16:34:34.120Z,96117.50
2023-04-06T16:37:37.832Z,96135.22
2023-04-06T16:41:01.218Z,96129.16
2023-04-06T16:44:14.642Z,96127.91
2023-04-06T16:47:18.853Z,96129.97
2023-04-06T16:50:22.830Z,96144.38
2023-04-06T16:53:26.501Z,96142.22
2023-04-06T16:56:35.236Z,96146.16
2023-04-06T16:59:48.009Z,96144.22
2023-04-06T17:02:53.201Z,96145.47
2023-04-06T17:06:06.430Z,96144.53
2023-04-06T17:09:12.610Z,96148.75
2023-04-06T17:12:18.279Z,96157.78
2023-04-06T17:15:27.306Z,96163.16
2023-04-06T17:18:31.728Z,96157.66
2023-04-06T17:21:34.938Z,96159.00
2023-04-06T17:24:45.631Z,96151.47
2023-04-06T17:27:56.823Z,96160.00
2023-04-06T17:31:01.633Z,96150.09
2023-04-06T17:34:03.628Z,96158.63
2023-04-06T17:37:09.566Z,96152.53
2023-04-06T17:40:15.195Z,96151.03
2023-04-06T17:43:27.389Z,96153.13
2023-04-06T17:46:30.953Z,96155.03
2023-04-06T17:49:34.229Z,96162.47
2023-04-06T17:55:55.438Z,96165.84
2023-04-06T17:58:59.935Z,96171.53
2023-04-06T18:02:05.499Z,96183.22
2023-04-06T18:05:17.944Z,96185.22
2023-04-06T18:08:25.662Z,96181.69
2023-04-06T18:11:34.726Z,96182.22
2023-04-06T18:14:45.493Z,96192.69
2023-04-06T18:17:58.596Z,96198.59
2023-04-06T18:21:09.856Z,96189.59
2023-04-06T18:24:27.295Z,96191.75
2023-04-06T18:27:37.848Z,96189.72
2023-04-06T18:30:49.653Z,96200.69
2023-04-06T18:33:53.864Z,96200.44
2023-04-06T18:37:09.420Z,96203.94
2023-04-06T18:40:39.094Z,96205.94
2023-04-06T18:43:43.318Z,96212.22
2023-04-06T18:50:07.858Z,96219.25
2023-04-06T18:53:10.774Z,96214.75
2023-04-06T18:56:23.288Z,96215.44
2023-04-06T18:59:32.453Z,96207.63
2023-04-06T19:02:36.879Z,96220.19
2023-04-06T19:05:44.152Z,96212.06
2023-04-06T19:08:49.454Z,96211.78
2023-04-06T19:11:52.835Z,96220.97
2023-04-06T19:14:58.383Z,96217.91
2023-04-06T19:18:01.735Z,96214.25
2023-04-06T19:21:30.676Z,96222.09
2023-04-06T19:24:33.642Z,96219.00
2023-04-06T19:27:44.746Z,96225.53
2023-04-06T19:30:48.583Z,96223.06
2023-04-06T19:37:14.891Z,96224.41
2023-04-06T19:40:17.564Z,96223.72
2023-04-06T19:43:20.773Z,96218.53
2023-04-06T19:46:26.512Z,96217.69
2023-04-06T19:49:30.864Z,96222.16
2023-04-06T19:52:40.282Z,96223.44
2023-04-06T19:55:46.118Z,96215.47
2023-04-06T19:58:51.412Z,96221.75
2023-04-06T20:01:55.192Z,96216.69
2023-04-06T20:04:56.898Z,96219.22
2023-04-06T20:08:01.534Z,96229.81
2023-04-06T20:11:25.239Z,96225.63
2023-04-06T20:14:37.206Z,96228.28
2023-04-06T20:17:50.159Z,96226.59
2023-04-06T20:20:56.797Z,96224.22
2023-04-06T20:24:02.574Z,96223.25
2023-04-06T20:27:06.758Z,96218.06
2023-04-06T20:30:22.400Z,96220.84
2023-04-06T20:33:26.761Z,96216.38
2023-04-06T20:36:35.774Z,96217.47
2023-04-06T20:39:41.213Z,96215.38
2023-04-06T20:42:44.650Z,96218.03
2023-04-06T20:45:50.973Z,96216.50
2023-04-06T20:48:56.861Z,96217.59
2023-04-06T20:52:02.609Z,96214.06
2023-04-06T20:55:18.665Z,96227.22
2023-04-06T20:58:21.948Z,96218.53
2023-04-06T21:01:26.950Z,96212.38
2023-04-06T21:04:41.965Z,96209.84
2023-04-06T21:07:48.430Z,96198.09
2023-04-06T21:10:51.641Z,96208.34
2023-04-06T21:13:55.798Z,96209.31
2023-04-06T21:17:08.972Z,96221.84
2023-04-06T21:20:18.513Z,96212.31
2023-04-06T21:23:31.610Z,96210.94
2023-04-06T21:26:37.547Z,96212.63
2023-04-06T21:29:48.723Z,96212.75
2023-04-06T21:32:51.542Z,96211.19
2023-04-06T21:35:56.496Z,96205.31
2023-04-06T21:39:08.138Z,96204.47
2023-04-06T21:42:14.345Z,96201.25
2023-04-06T21:45:18.762Z,96204.16
2023-04-06T21:48:27.621Z,96201.91
2023-04-06T21:51:30.711Z,96203.25
2023-04-06T21:54:38.974Z,96215.66
2023-04-06T21:57:43.638Z,96206.44
2023-04-06T22:00:49.446Z,96201.97
2023-04-06T22:03:55.554Z,96201.41
2023-04-06T22:07:01.435Z,96212.16
2023-04-06T22:10:06.191Z,96210.47
2023-04-06T22:13:12.586Z,96213.09
2023-04-06T22:16:21.897Z,96207.94
2023-04-06T22:19:26.045Z,96207.09
2023-04-06T22:22:38.475Z,96208.78
2023-04-06T22:25:45.051Z,96197.31
2023-04-06T22:28:50.584Z,96199.13
2023-04-06T22:31:57.636Z,96196.63
2023-04-06T22:35:11.727Z,96196.75
2023-04-06T22:38:16.887Z,96195.19
2023-04-06T22:41:20.602Z,96192.69
2023-04-06T22:44:31.481Z,96195.31
2023-04-06T22:47:36.929Z,96184.59
2023-04-06T22:50:47.971Z,96179.44
2023-04-06T22:57:09.905Z,96188.94
2023-04-06T23:00:13.818Z,96173.16
2023-04-06T23:03:26.374Z,96170.63
2023-04-06T23:06:42.158Z,96177.63
2023-04-06T23:09:47.627Z,96171.47
2023-04-06T23:16:12.955Z,96171.47
2023-04-06T23:19:17.274Z,96165.34
2023-04-06T23:22:22.516Z,96166.47
2023-04-06T23:28:49.954Z,96164.06
2023-04-06T23:31:51.943Z,96163.22
2023-04-06T23:34:56.115Z,96163.63
2023-04-06T23:38:06.910Z,96158.03
2023-04-06T23:41:16.321Z,96161.81
2023-04-06T23:44:30.303Z,96153.00
2023-04-06T23:47:33.520Z,96164.47
2023-04-06T23:50:38.056Z,96164.56
2023-04-06T23:54:01.037Z,96167.34
2023-04-06T23:57:02.952Z,96170.00
